Norbank — PGIS — position and weather

sailwx.info

Track history (hours):
 
Tides and Currents Weather Stations Pressure Air Temp Water Temp Dewpoint Dewpoint Depression Visibility Wind Speed Wind Dir Waves Ship Positions

Norbank

Operator: P & O Ferries

Last reported at 2018-Dec-13 10:10 UTC. Time now 2018-Dec-13 14:19 UTC.
Position N 53°21' W 006°00'.

Length 167 m; draft 5.6 m.

Type: Ship (hazmat cat A). MMSI: 246213000.

Date/timePositionNaut miles runAvg speedWind from/ knotsBaromVisibWave heightAir tempDewpointWater temp
2018-Dec-13 10:10N 53°21' W 006°00'317.7
2018-Dec-13 10:00N 53°20' W 006°05'510.0
2018-Dec-13 09:30N 53°21' W 006°13'0 0.3
2018-Dec-13 08:57N 53°21' W 006°13'0 0.0
2018-Dec-13 08:15N 53°21' W 006°13'0 0.0
2018-Dec-13 08:00N 53°21' W 006°13'0 0.0
2018-Dec-13 07:26N 53°21' W 006°13'0 0.0
2018-Dec-13 06:50N 53°21' W 006°13'0 0.0
2018-Dec-13 06:11N 53°21' W 006°13'0 0.0
2018-Dec-13 05:56N 53°21' W 006°13'0 0.0
2018-Dec-13 05:29N 53°21' W 006°13'1 1.8
2018-Dec-13 05:00N 53°21' W 006°12'814.3
2018-Dec-13 04:29N 53°22' W 005°59'919.8
2018-Dec-13 04:01N 53°26' W 005°45'8019.6
2018-Dec-12 23:56N 53°33' W 003°32'819.3
2018-Dec-12 23:31N 53°32' W 003°18'815.5
2018-Dec-12 23:01N 53°30' W 003°05'4 7.6
2018-Dec-12 22:30N 53°27' W 003°01'0 0.8
2018-Dec-12 22:00N 53°27' W 003°01'0 0.0
2018-Dec-12 21:30N 53°27' W 003°01'0 0.0
2018-Dec-12 21:00N 53°27' W 003°01'0 0.0
2018-Dec-12 20:29N 53°27' W 003°01'0 0.0
2018-Dec-12 19:59N 53°27' W 003°01'0 0.0
2018-Dec-12 19:29N 53°27' W 003°01'0 0.0
2018-Dec-12 18:59N 53°27' W 003°01'0 0.0
2018-Dec-12 18:29N 53°27' W 003°01'0 0.0
2018-Dec-12 17:58N 53°27' W 003°01'0 0.2
2018-Dec-12 17:31N 53°27' W 003°01'0 0.8
2018-Dec-12 17:00N 53°27' W 003°01'1 1.5
2018-Dec-12 16:31N 53°27' W 003°02'3 5.8
2018-Dec-12 16:00N 53°30' W 003°05'611.8
2018-Dec-12 15:30N 53°31' W 003°15'714.5
2018-Dec-12 15:00N 53°31' W 003°27'815.2
2018-Dec-12 14:30N 53°31' W 003°40'8418.3
2018-Dec-12 09:55N 53°21' W 005°60'614.2
2018-Dec-12 09:30N 53°21' W 006°10'2 3.9
2018-Dec-12 08:59N 53°21' W 006°13'0 0.0
2018-Dec-12 08:20N 53°21' W 006°13'0 0.0
2018-Dec-12 07:38N 53°21' W 006°13'0 0.0
2018-Dec-12 07:29N 53°21' W 006°13'0 0.0
2018-Dec-12 06:56N 53°21' W 006°13'0 0.0
2018-Dec-12 06:13N 53°21' W 006°13'0 0.0
2018-Dec-12 05:58N 53°21' W 006°13'0 0.0
2018-Dec-12 05:28N 53°21' W 006°13'0 0.2
2018-Dec-12 05:00N 53°21' W 006°13'5 9.3
2018-Dec-12 04:30N 53°20' W 006°05'816.8
2018-Dec-12 04:00N 53°23' W 005°52'8417.7
2018-Dec-11 23:15N 53°33' W 003°32'418.0
2018-Dec-11 23:00N 53°33' W 003°25'917.1
2018-Dec-11 22:30N 53°32' W 003°10'714.7
2018-Dec-11 22:01N 53°27' W 003°01'0 0.5
2018-Dec-11 21:30N 53°27' W 003°01'0 0.9
2018-Dec-11 21:00N 53°27' W 003°01'0 0.0
2018-Dec-11 20:29N 53°27' W 003°01'0 0.0
2018-Dec-11 19:59N 53°27' W 003°01'0 0.0
2018-Dec-11 19:29N 53°27' W 003°01'0 0.0
2018-Dec-11 18:59N 53°27' W 003°01'0 0.0
2018-Dec-11 18:28N 53°27' W 003°01'0 0.0
2018-Dec-11 17:58N 53°27' W 003°01'0 0.0
2018-Dec-11 17:28N 53°27' W 003°01'0 0.0
2018-Dec-11 16:58N 53°27' W 003°01'0 0.9
2018-Dec-11 16:29N 53°27' W 003°01'2 4.4
2018-Dec-11 16:00N 53°28' W 003°04'714.0
2018-Dec-11 15:30N 53°31' W 003°15'917.7
2018-Dec-11 15:00N 53°31' W 003°30'816.3
2018-Dec-11 14:30N 53°31' W 003°43'815.8
2018-Dec-11 14:00N 53°33' W 003°56'7517.9
2018-Dec-11 09:50N 53°21' W 006°00'514.7
2018-Dec-11 09:30N 53°21' W 006°08'3 5.5
2018-Dec-11 09:00N 53°21' W 006°13'0 0.0
2018-Dec-11 08:25N 53°21' W 006°13'0 0.0
2018-Dec-11 07:42N 53°21' W 006°13'0 0.0
2018-Dec-11 07:30N 53°21' W 006°13'0 0.0
2018-Dec-11 06:57N 53°21' W 006°13'0 0.0
2018-Dec-11 06:29N 53°21' W 006°13'0 0.0
2018-Dec-11 06:00N 53°21' W 006°13'0 0.0
2018-Dec-11 05:30N 53°21' W 006°13'0 0.8
2018-Dec-11 05:00N 53°21' W 006°12'4 8.8
2018-Dec-11 04:31N 53°20' W 006°05'1019.1
2018-Dec-11 04:00N 53°23' W 005°50'8117.7
2018-Dec-10 23:26N 53°33' W 003°35'717.8
2018-Dec-10 23:01N 53°33' W 003°23'917.0
2018-Dec-10 22:31N 53°32' W 003°08'712.9
2018-Dec-10 22:00N 53°27' W 003°01'0 0.3
2018-Dec-10 21:30N 53°27' W 003°01'0 0.8
2018-Dec-10 20:58N 53°27' W 003°01'0 0.0
2018-Dec-10 20:25N 53°27' W 003°01'0 0.0
2018-Dec-10 19:58N 53°27' W 003°01'0 0.0
2018-Dec-10 19:30N 53°27' W 003°01'0 0.0
2018-Dec-10 19:00N 53°27' W 003°01'0 0.0
2018-Dec-10 18:30N 53°27' W 003°01'0 0.0
2018-Dec-10 18:00N 53°27' W 003°01'0 0.0
2018-Dec-10 17:30N 53°27' W 003°01'0 0.0
2018-Dec-10 17:00N 53°27' W 003°01'0 0.9
2018-Dec-10 16:31N 53°27' W 003°01'2 4.1
2018-Dec-10 16:00N 53°28' W 003°04'713.9
2018-Dec-10 15:30N 53°31' W 003°14'918.0
2018-Dec-10 15:00N 53°31' W 003°30'917.6
2018-Dec-10 14:30N 53°31' W 003°44'8218.2
2018-Dec-10 10:02N 53°21' W 006°00'020.0
2018-Dec-10 10:00N 53°21' W 006°01'713.0
2018-Dec-10 09:30N 53°21' W 006°12'1 1.3
2018-Dec-10 08:58N 53°21' W 006°13'0 0.0
2018-Dec-10 08:21N 53°21' W 006°13'0 0.0
2018-Dec-10 07:36N 53°21' W 006°13'0 0.0
2018-Dec-10 07:30N 53°21' W 006°13'0 0.0
2018-Dec-10 06:54N 53°21' W 006°13'0 0.0
2018-Dec-10 06:05N 53°21' W 006°13'0 0.0
2018-Dec-10 05:59N 53°21' W 006°13'0 0.0
2018-Dec-10 05:20N 53°21' W 006°13'0 0.5
2018-Dec-10 05:00N 53°21' W 006°13'5 9.3
2018-Dec-10 04:30N 53°20' W 006°05'917.7
2018-Dec-10 04:00N 53°24' W 005°51'8317.3
2018-Dec-09 23:14N 53°33' W 003°34'417.7
2018-Dec-09 23:01N 53°33' W 003°27'917.0
2018-Dec-09 22:30N 53°31' W 003°13'714.7
2018-Dec-09 22:01N 53°27' W 003°02'1 1.9
2018-Dec-09 21:30N 53°27' W 003°01'0 0.6
2018-Dec-09 20:58N 53°27' W 003°01'0 0.0
2018-Dec-09 20:28N 53°27' W 003°01'0 0.0
2018-Dec-09 20:00N 53°27' W 003°01'0 0.0
2018-Dec-09 19:28N 53°27' W 003°01'0 0.0
2018-Dec-09 19:00N 53°27' W 003°01'0 0.0
2018-Dec-09 18:30N 53°27' W 003°01'0 0.0
2018-Dec-09 18:00N 53°27' W 003°01'0 0.0
2018-Dec-09 17:30N 53°27' W 003°01'0 0.0
2018-Dec-09 17:00N 53°27' W 003°01'0 0.0
2018-Dec-09 16:29N 53°27' W 003°01'0 0.0
2018-Dec-09 15:59N 53°27' W 003°01'0 0.0
2018-Dec-09 15:29N 53°27' W 003°01'0 0.0
2018-Dec-09 14:59N 53°27' W 003°01'0 0.0
2018-Dec-09 14:28N 53°27' W 003°01'0 0.0
2018-Dec-09 13:55N 53°27' W 003°01'0 0.0
2018-Dec-09 13:28N 53°27' W 003°01'0 0.0
2018-Dec-09 12:58N 53°27' W 003°01'0 0.0
2018-Dec-09 12:28N 53°27' W 003°01'0 0.0
2018-Dec-09 12:00N 53°27' W 003°01'0 0.0
2018-Dec-09 11:30N 53°27' W 003°01'0 0.0
2018-Dec-09 11:00N 53°27' W 003°01'0 0.0
2018-Dec-09 10:30N 53°27' W 003°01'0 0.0
2018-Dec-09 10:00N 53°27' W 003°01'0 0.0
2018-Dec-09 09:29N 53°27' W 003°01'0 0.0
2018-Dec-09 08:59N 53°27' W 003°01'0 0.0
2018-Dec-09 08:29N 53°27' W 003°01'0 0.0
2018-Dec-09 07:59N 53°27' W 003°01'0 0.0
2018-Dec-09 07:28N 53°27' W 003°01'0 0.0
2018-Dec-09 06:58N 53°27' W 003°01'0 0.0
2018-Dec-09 06:28N 53°27' W 003°01'0 0.0
2018-Dec-09 05:58N 53°27' W 003°01'0 0.0
2018-Dec-09 05:30N 53°27' W 003°01'0 0.7
2018-Dec-09 05:00N 53°27' W 003°01'3 6.1
2018-Dec-09 04:31N 53°29' W 003°05'612.8
2018-Dec-09 04:01N 53°31' W 003°15'917.4
2018-Dec-09 03:31N 53°31' W 003°30'917.1
2018-Dec-09 03:00N 53°31' W 003°44'8115.7
2018-Dec-08 21:50N 53°21' W 005°60'515.8
2018-Dec-08 21:30N 53°21' W 006°08'3 5.8
2018-Dec-08 21:00N 53°21' W 006°13'0 0.0
2018-Dec-08 20:28N 53°21' W 006°13'0 0.0
2018-Dec-08 19:55N 53°21' W 006°13'0 0.0
2018-Dec-08 19:10N 53°21' W 006°13'0 0.0
2018-Dec-08 18:58N 53°21' W 006°13'0 0.0
2018-Dec-08 18:25N 53°21' W 006°13'0 0.0
2018-Dec-08 17:39N 53°21' W 006°13'0 0.0
2018-Dec-08 17:30N 53°21' W 006°13'0 0.0
2018-Dec-08 16:54N 53°21' W 006°13'0 0.0
2018-Dec-08 16:09N 53°21' W 006°13'0 0.0
2018-Dec-08 15:59N 53°21' W 006°13'0 0.0
2018-Dec-08 15:29N 53°21' W 006°13'0 0.0
2018-Dec-08 14:38N 53°21' W 006°13'0 0.0
2018-Dec-08 14:29N 53°21' W 006°13'1 1.5
2018-Dec-08 14:00N 53°21' W 006°12'612.7
2018-Dec-08 13:30N 53°21' W 006°01'1119.7
2018-Dec-08 12:56N 53°25' W 005°44'7718.1
2018-Dec-08 08:41N 53°33' W 003°35'316.9
2018-Dec-08 08:30N 53°33' W 003°30'816.8
2018-Dec-08 08:00N 53°32' W 003°16'714.1
2018-Dec-08 07:30N 53°29' W 003°05'3 6.5
2018-Dec-08 07:00N 53°27' W 003°01'0 0.2
2018-Dec-08 06:30N 53°27' W 003°01'0 0.6
2018-Dec-08 06:00N 53°27' W 003°01'0 0.0
2018-Dec-08 05:28N 53°27' W 003°01'0 0.0
2018-Dec-08 05:00N 53°27' W 003°01'0 0.0
2018-Dec-08 04:30N 53°27' W 003°01'0 0.0
2018-Dec-08 04:00N 53°27' W 003°01'0 0.0
2018-Dec-08 03:30N 53°27' W 003°01'0 0.0
2018-Dec-08 02:57N 53°27' W 003°01'0 0.0
2018-Dec-08 02:29N 53°27' W 003°01'0 0.0
2018-Dec-08 01:59N 53°27' W 003°01'0 0.0
2018-Dec-08 01:29N 53°27' W 003°01'0 0.0
2018-Dec-08 00:59N 53°27' W 003°01'0 0.0
2018-Dec-08 00:29N 53°27' W 003°01'0 0.0
2018-Dec-07 23:58N 53°27' W 003°01'0 0.0
2018-Dec-07 23:28N 53°27' W 003°01'0 0.0
2018-Dec-07 22:58N 53°27' W 003°01'0 0.0
2018-Dec-07 22:28N 53°27' W 003°01'0 0.0
2018-Dec-07 22:00N 53°27' W 003°01'0 0.0
2018-Dec-07 21:30N 53°27' W 003°01'0 0.0
2018-Dec-07 21:00N 53°27' W 003°01'0 0.0
2018-Dec-07 20:30N 53°27' W 003°01'0 0.0
2018-Dec-07 20:00N 53°27' W 003°01'0 0.0
2018-Dec-07 19:29N 53°27' W 003°01'0 0.0
2018-Dec-07 18:56N 53°27' W 003°01'0 0.0
2018-Dec-07 18:29N 53°27' W 003°01'0 0.0
2018-Dec-07 17:56N 53°27' W 003°01'0 0.0
2018-Dec-07 17:28N 53°27' W 003°01'0 0.0
2018-Dec-07 16:58N 53°27' W 003°01'0 0.9
2018-Dec-07 16:30N 53°27' W 003°01'0 0.3
2018-Dec-07 16:00N 53°27' W 003°01'612.1
2018-Dec-07 15:31N 53°31' W 003°08'816.2
2018-Dec-07 15:01N 53°31' W 003°21'917.8
2018-Dec-07 14:31N 53°31' W 003°36'1018.2
2018-Dec-07 13:59N 53°32' W 003°53'7719.2
2018-Dec-07 10:00N 53°21' W 005°60'713.9
2018-Dec-07 09:31N 53°21' W 006°11'1 1.7
2018-Dec-07 08:47N 53°21' W 006°13'0 0.0
2018-Dec-07 08:29N 53°21' W 006°13'0 0.0
2018-Dec-07 07:59N 53°21' W 006°13'0 0.0
2018-Dec-07 07:20N 53°21' W 006°13'0 0.0
2018-Dec-07 06:40N 53°21' W 006°13'0 0.0
2018-Dec-07 06:28N 53°21' W 006°13'0 0.0
2018-Dec-07 05:55N 53°21' W 006°13'0 0.0
2018-Dec-07 05:22N 53°21' W 006°13'1 1.5
2018-Dec-07 05:01N 53°21' W 006°12'611.3
2018-Dec-07 04:30N 53°21' W 006°03'917.8
2018-Dec-07 04:00N 53°24' W 005°49'8419.0
2018-Dec-06 23:35N 53°34' W 003°29'119.4
2018-Dec-06 23:30N 53°33' W 003°26'918.7
2018-Dec-06 23:00N 53°32' W 003°11'815.1
2018-Dec-06 22:30N 53°27' W 003°01'0 0.7
2018-Dec-06 22:00N 53°27' W 003°01'0 0.7
2018-Dec-06 21:29N 53°27' W 003°01'0 0.0
2018-Dec-06 20:59N 53°27' W 003°01'0 0.0
2018-Dec-06 20:29N 53°27' W 003°01'0 0.0
2018-Dec-06 19:58N 53°27' W 003°01'0 0.0
2018-Dec-06 19:28N 53°27' W 003°01'0 0.0
2018-Dec-06 18:58N 53°27' W 003°01'0 0.0
2018-Dec-06 18:28N 53°27' W 003°01'0 0.0
2018-Dec-06 17:58N 53°27' W 003°01'0 0.0
2018-Dec-06 17:30N 53°27' W 003°01'0 0.3
2018-Dec-06 17:01N 53°27' W 003°01'0 0.7
2018-Dec-06 16:30N 53°27' W 003°01'2 3.1
2018-Dec-06 16:00N 53°28' W 003°03'713.1
2018-Dec-06 15:30N 53°31' W 003°12'917.9
2018-Dec-06 15:00N 53°31' W 003°28'1019.4
2018-Dec-06 14:30N 53°31' W 003°44'1019.1
2018-Dec-06 13:59N 53°33' W 004°00'7218.2
2018-Dec-06 10:01N 53°21' W 005°60'018.6
2018-Dec-06 10:00N 53°21' W 006°00'713.6
2018-Dec-06 09:30N 53°21' W 006°11'1 2.0
2018-Dec-06 09:00N 53°21' W 006°13'0 0.0
2018-Dec-06 08:21N 53°21' W 006°13'0 0.0
2018-Dec-06 07:39N 53°21' W 006°13'0 0.0
2018-Dec-06 07:30N 53°21' W 006°13'0 0.0
2018-Dec-06 06:57N 53°21' W 006°13'0 0.0
2018-Dec-06 06:14N 53°21' W 006°13'0 0.0
2018-Dec-06 05:59N 53°21' W 006°13'0 0.0
2018-Dec-06 05:29N 53°21' W 006°13'0 0.6
2018-Dec-06 05:01N 53°21' W 006°13'5 9.6
2018-Dec-06 04:30N 53°20' W 006°05'917.9
2018-Dec-06 04:00N 53°23' W 005°51'3917.8
2018-Dec-06 01:51N 53°32' W 004°48'3218.7
2018-Dec-06 00:10N 53°34' W 003°55'1417.1
2018-Dec-05 23:22N 53°33' W 003°32'616.6
2018-Dec-05 23:00N 53°33' W 003°22'917.4
2018-Dec-05 22:30N 53°31' W 003°07'611.6
2018-Dec-05 22:00N 53°27' W 003°01'0 0.9
2018-Dec-05 21:30N 53°27' W 003°01'0 0.0
2018-Dec-05 21:00N 53°27' W 003°01'0 0.0
2018-Dec-05 20:30N 53°27' W 003°01'0 0.0
2018-Dec-05 20:00N 53°27' W 003°01'0 0.0
2018-Dec-05 19:30N 53°27' W 003°01'0 0.0
2018-Dec-05 18:59N 53°27' W 003°01'0 0.0
2018-Dec-05 18:29N 53°27' W 003°01'0 0.0
2018-Dec-05 17:59N 53°27' W 003°01'0 0.0
2018-Dec-05 17:29N 53°27' W 003°01'0 0.0
2018-Dec-05 16:59N 53°27' W 003°01'0 0.8
2018-Dec-05 16:28N 53°27' W 003°01'2 4.6
2018-Dec-05 16:00N 53°28' W 003°04'613.0
2018-Dec-05 15:30N 53°31' W 003°14'918.7
2018-Dec-05 15:00N 53°31' W 003°29'1019.5
2018-Dec-05 14:30N 53°32' W 003°46'7818.2
2018-Dec-05 10:14N 53°22' W 005°55'418.1
2018-Dec-05 10:00N 53°21' W 006°02'611.9
2018-Dec-05 09:30N 53°21' W 006°12'1 1.5
2018-Dec-05 09:00N 53°21' W 006°13'0 0.0
2018-Dec-05 08:18N 53°21' W 006°13'0 0.0
2018-Dec-05 08:00N 53°21' W 006°13'0 0.0
2018-Dec-05 07:29N 53°21' W 006°13'0 0.0
2018-Dec-05 06:50N 53°21' W 006°13'0 0.0
2018-Dec-05 06:05N 53°21' W 006°13'0 0.0
2018-Dec-05 05:59N 53°21' W 006°13'0 0.0
2018-Dec-05 05:22N 53°21' W 006°13'0 0.2
2018-Dec-05 05:00N 53°21' W 006°13'4 8.9
2018-Dec-05 04:30N 53°20' W 006°05'815.0
2018-Dec-05 04:00N 53°23' W 005°54'815.6
2018-Dec-05 03:30N 53°25' W 005°41'7816.4
2018-Dec-04 22:47N 53°34' W 003°32'517.0
2018-Dec-04 22:30N 53°33' W 003°24'917.4
2018-Dec-04 22:00N 53°32' W 003°09'713.7
2018-Dec-04 21:30N 53°27' W 003°01'0 0.9
2018-Dec-04 21:00N 53°27' W 003°01'0 0.0
2018-Dec-04 20:30N 53°27' W 003°01'0 0.0
2018-Dec-04 20:00N 53°27' W 003°01'0 0.0
2018-Dec-04 19:29N 53°27' W 003°01'0 0.0
2018-Dec-04 18:59N 53°27' W 003°01'0 0.0
2018-Dec-04 18:29N 53°27' W 003°01'0 0.0
2018-Dec-04 17:59N 53°27' W 003°01'0 0.0
2018-Dec-04 17:29N 53°27' W 003°01'0 0.0
2018-Dec-04 16:58N 53°27' W 003°01'0 0.9
2018-Dec-04 16:27N 53°27' W 003°01'0 0.3
2018-Dec-04 16:00N 53°27' W 003°01'612.2
2018-Dec-04 15:30N 53°32' W 003°08'816.7
2018-Dec-04 15:00N 53°32' W 003°22'1020.1
2018-Dec-04 14:30N 53°31' W 003°39'1019.9
2018-Dec-04 13:59N 53°33' W 003°56'7418.5
2018-Dec-04 09:57N 53°21' W 005°59'612.5
2018-Dec-04 09:30N 53°21' W 006°09'2 4.2
2018-Dec-04 08:55N 53°21' W 006°13'0 0.0
2018-Dec-04 08:13N 53°21' W 006°13'0 0.0
2018-Dec-04 07:58N 53°21' W 006°13'0 0.0
2018-Dec-04 07:30N 53°21' W 006°13'0 0.0
2018-Dec-04 06:45N 53°21' W 006°13'0 0.0
2018-Dec-04 06:27N 53°21' W 006°13'0 0.0
2018-Dec-04 06:00N 53°21' W 006°13'0 0.0
2018-Dec-04 05:18N 53°21' W 006°13'0 1.0
2018-Dec-04 05:00N 53°21' W 006°13'5 9.8
2018-Dec-04 04:30N 53°20' W 006°04'816.9
2018-Dec-04 04:00N 53°24' W 005°51'8116.3
2018-Dec-03 23:03N 53°33' W 003°37'116.5
2018-Dec-03 23:00N 53°33' W 003°35'816.3
2018-Dec-03 22:30N 53°32' W 003°22'917.3
2018-Dec-03 22:00N 53°31' W 003°07'611.5
2018-Dec-03 21:30N 53°27' W 003°01'0 0.9
2018-Dec-03 20:59N 53°27' W 003°01'0 0.0
2018-Dec-03 20:29N 53°27' W 003°01'0 0.0
2018-Dec-03 19:59N 53°27' W 003°01'0 0.0
2018-Dec-03 19:29N 53°27' W 003°01'0 0.0
2018-Dec-03 18:59N 53°27' W 003°01'0 0.0
2018-Dec-03 18:28N 53°27' W 003°01'0 0.0
2018-Dec-03 17:55N 53°27' W 003°01'0 0.0
2018-Dec-03 17:28N 53°27' W 003°01'0 0.0
2018-Dec-03 16:58N 53°27' W 003°01'0 0.9
2018-Dec-03 16:27N 53°27' W 003°01'0 0.4
2018-Dec-03 16:00N 53°27' W 003°01'714.4
2018-Dec-03 15:30N 53°32' W 003°10'918.4
2018-Dec-03 15:00N 53°31' W 003°25'1020.7
2018-Dec-03 14:30N 53°31' W 003°43'8118.9
2018-Dec-03 10:12N 53°21' W 005°58'  
Track history (hours):
 
Tides and Currents Weather Stations Pressure Air Temp Water Temp Dewpoint Dewpoint Depression Visibility Wind Speed Wind Dir Waves Ship Positions

Norbank

Operator: P & O Ferries

Last reported at 2018-Dec-13 10:10 UTC. Time now 2018-Dec-13 14:19 UTC.
Position N 53°21' W 006°00'.

Length 167 m; draft 5.6 m.

Type: Ship (hazmat cat A). MMSI: 246213000.

Date/timePositionNaut miles runAvg speedWind from/ knotsBaromVisibWave heightAir tempDewpointWater temp
2018-Dec-13 10:10N 53°21' W 006°00'317.7
2018-Dec-13 10:00N 53°20' W 006°05'510.0
2018-Dec-13 09:30N 53°21' W 006°13'0 0.3
2018-Dec-13 08:57N 53°21' W 006°13'0 0.0
2018-Dec-13 08:15N 53°21' W 006°13'0 0.0
2018-Dec-13 08:00N 53°21' W 006°13'0 0.0
2018-Dec-13 07:26N 53°21' W 006°13'0 0.0
2018-Dec-13 06:50N 53°21' W 006°13'0 0.0
2018-Dec-13 06:11N 53°21' W 006°13'0 0.0
2018-Dec-13 05:56N 53°21' W 006°13'0 0.0
2018-Dec-13 05:29N 53°21' W 006°13'1 1.8
2018-Dec-13 05:00N 53°21' W 006°12'814.3
2018-Dec-13 04:29N 53°22' W 005°59'919.8
2018-Dec-13 04:01N 53°26' W 005°45'8019.6
2018-Dec-12 23:56N 53°33' W 003°32'819.3
2018-Dec-12 23:31N 53°32' W 003°18'815.5
2018-Dec-12 23:01N 53°30' W 003°05'4 7.6
2018-Dec-12 22:30N 53°27' W 003°01'0 0.8
2018-Dec-12 22:00N 53°27' W 003°01'0 0.0
2018-Dec-12 21:30N 53°27' W 003°01'0 0.0
2018-Dec-12 21:00N 53°27' W 003°01'0 0.0
2018-Dec-12 20:29N 53°27' W 003°01'0 0.0
2018-Dec-12 19:59N 53°27' W 003°01'0 0.0
2018-Dec-12 19:29N 53°27' W 003°01'0 0.0
2018-Dec-12 18:59N 53°27' W 003°01'0 0.0
2018-Dec-12 18:29N 53°27' W 003°01'0 0.0
2018-Dec-12 17:58N 53°27' W 003°01'0 0.2
2018-Dec-12 17:31N 53°27' W 003°01'0 0.8
2018-Dec-12 17:00N 53°27' W 003°01'1 1.5
2018-Dec-12 16:31N 53°27' W 003°02'3 5.8
2018-Dec-12 16:00N 53°30' W 003°05'611.8
2018-Dec-12 15:30N 53°31' W 003°15'714.5
2018-Dec-12 15:00N 53°31' W 003°27'815.2
2018-Dec-12 14:30N 53°31' W 003°40'8418.3
2018-Dec-12 09:55N 53°21' W 005°60'614.2
2018-Dec-12 09:30N 53°21' W 006°10'2 3.9
2018-Dec-12 08:59N 53°21' W 006°13'0 0.0
2018-Dec-12 08:20N 53°21' W 006°13'0 0.0
2018-Dec-12 07:38N 53°21' W 006°13'0 0.0
2018-Dec-12 07:29N 53°21' W 006°13'0 0.0
2018-Dec-12 06:56N 53°21' W 006°13'0 0.0
2018-Dec-12 06:13N 53°21' W 006°13'0 0.0
2018-Dec-12 05:58N 53°21' W 006°13'0 0.0
2018-Dec-12 05:28N 53°21' W 006°13'0 0.2
2018-Dec-12 05:00N 53°21' W 006°13'5 9.3
2018-Dec-12 04:30N 53°20' W 006°05'816.8
2018-Dec-12 04:00N 53°23' W 005°52'8417.7
2018-Dec-11 23:15N 53°33' W 003°32'418.0
2018-Dec-11 23:00N 53°33' W 003°25'917.1
2018-Dec-11 22:30N 53°32' W 003°10'714.7
2018-Dec-11 22:01N 53°27' W 003°01'0 0.5
2018-Dec-11 21:30N 53°27' W 003°01'0 0.9
2018-Dec-11 21:00N 53°27' W 003°01'0 0.0
2018-Dec-11 20:29N 53°27' W 003°01'0 0.0
2018-Dec-11 19:59N 53°27' W 003°01'0 0.0
2018-Dec-11 19:29N 53°27' W 003°01'0 0.0
2018-Dec-11 18:59N 53°27' W 003°01'0 0.0
2018-Dec-11 18:28N 53°27' W 003°01'0 0.0
2018-Dec-11 17:58N 53°27' W 003°01'0 0.0
2018-Dec-11 17:28N 53°27' W 003°01'0 0.0
2018-Dec-11 16:58N 53°27' W 003°01'0 0.9
2018-Dec-11 16:29N 53°27' W 003°01'2 4.4
2018-Dec-11 16:00N 53°28' W 003°04'714.0
2018-Dec-11 15:30N 53°31' W 003°15'917.7
2018-Dec-11 15:00N 53°31' W 003°30'816.3
2018-Dec-11 14:30N 53°31' W 003°43'815.8
2018-Dec-11 14:00N 53°33' W 003°56'7517.9
2018-Dec-11 09:50N 53°21' W 006°00'514.7
2018-Dec-11 09:30N 53°21' W 006°08'3 5.5
2018-Dec-11 09:00N 53°21' W 006°13'0 0.0
2018-Dec-11 08:25N 53°21' W 006°13'0 0.0
2018-Dec-11 07:42N 53°21' W 006°13'0 0.0
2018-Dec-11 07:30N 53°21' W 006°13'0 0.0
2018-Dec-11 06:57N 53°21' W 006°13'0 0.0
2018-Dec-11 06:29N 53°21' W 006°13'0 0.0
2018-Dec-11 06:00N 53°21' W 006°13'0 0.0
2018-Dec-11 05:30N 53°21' W 006°13'0 0.8
2018-Dec-11 05:00N 53°21' W 006°12'4 8.8
2018-Dec-11 04:31N 53°20' W 006°05'1019.1
2018-Dec-11 04:00N 53°23' W 005°50'8117.7
2018-Dec-10 23:26N 53°33' W 003°35'717.8
2018-Dec-10 23:01N 53°33' W 003°23'917.0
2018-Dec-10 22:31N 53°32' W 003°08'712.9
2018-Dec-10 22:00N 53°27' W 003°01'0 0.3
2018-Dec-10 21:30N 53°27' W 003°01'0 0.8
2018-Dec-10 20:58N 53°27' W 003°01'0 0.0
2018-Dec-10 20:25N 53°27' W 003°01'0 0.0
2018-Dec-10 19:58N 53°27' W 003°01'0 0.0
2018-Dec-10 19:30N 53°27' W 003°01'0 0.0
2018-Dec-10 19:00N 53°27' W 003°01'0 0.0
2018-Dec-10 18:30N 53°27' W 003°01'0 0.0
2018-Dec-10 18:00N 53°27' W 003°01'0 0.0
2018-Dec-10 17:30N 53°27' W 003°01'0 0.0
2018-Dec-10 17:00N 53°27' W 003°01'0 0.9
2018-Dec-10 16:31N 53°27' W 003°01'2 4.1
2018-Dec-10 16:00N 53°28' W 003°04'713.9
2018-Dec-10 15:30N 53°31' W 003°14'918.0
2018-Dec-10 15:00N 53°31' W 003°30'917.6
2018-Dec-10 14:30N 53°31' W 003°44'8218.2
2018-Dec-10 10:02N 53°21' W 006°00'020.0
2018-Dec-10 10:00N 53°21' W 006°01'713.0
2018-Dec-10 09:30N 53°21' W 006°12'1 1.3
2018-Dec-10 08:58N 53°21' W 006°13'0 0.0
2018-Dec-10 08:21N 53°21' W 006°13'0 0.0
2018-Dec-10 07:36N 53°21' W 006°13'0 0.0
2018-Dec-10 07:30N 53°21' W 006°13'0 0.0
2018-Dec-10 06:54N 53°21' W 006°13'0 0.0
2018-Dec-10 06:05N 53°21' W 006°13'0 0.0
2018-Dec-10 05:59N 53°21' W 006°13'0 0.0
2018-Dec-10 05:20N 53°21' W 006°13'0 0.5
2018-Dec-10 05:00N 53°21' W 006°13'5 9.3
2018-Dec-10 04:30N 53°20' W 006°05'917.7
2018-Dec-10 04:00N 53°24' W 005°51'8317.3
2018-Dec-09 23:14N 53°33' W 003°34'417.7
2018-Dec-09 23:01N 53°33' W 003°27'917.0
2018-Dec-09 22:30N 53°31' W 003°13'714.7
2018-Dec-09 22:01N 53°27' W 003°02'1 1.9
2018-Dec-09 21:30N 53°27' W 003°01'0 0.6
2018-Dec-09 20:58N 53°27' W 003°01'0 0.0
2018-Dec-09 20:28N 53°27' W 003°01'0 0.0
2018-Dec-09 20:00N 53°27' W 003°01'0 0.0
2018-Dec-09 19:28N 53°27' W 003°01'0 0.0
2018-Dec-09 19:00N 53°27' W 003°01'0 0.0
2018-Dec-09 18:30N 53°27' W 003°01'0 0.0
2018-Dec-09 18:00N 53°27' W 003°01'0 0.0
2018-Dec-09 17:30N 53°27' W 003°01'0 0.0
2018-Dec-09 17:00N 53°27' W 003°01'0 0.0
2018-Dec-09 16:29N 53°27' W 003°01'0 0.0
2018-Dec-09 15:59N 53°27' W 003°01'0 0.0
2018-Dec-09 15:29N 53°27' W 003°01'0 0.0
2018-Dec-09 14:59N 53°27' W 003°01'0 0.0
2018-Dec-09 14:28N 53°27' W 003°01'0 0.0
2018-Dec-09 13:55N 53°27' W 003°01'0 0.0
2018-Dec-09 13:28N 53°27' W 003°01'0 0.0
2018-Dec-09 12:58N 53°27' W 003°01'0 0.0
2018-Dec-09 12:28N 53°27' W 003°01'0 0.0
2018-Dec-09 12:00N 53°27' W 003°01'0 0.0
2018-Dec-09 11:30N 53°27' W 003°01'0 0.0
2018-Dec-09 11:00N 53°27' W 003°01'0 0.0
2018-Dec-09 10:30N 53°27' W 003°01'0 0.0
2018-Dec-09 10:00N 53°27' W 003°01'0 0.0
2018-Dec-09 09:29N 53°27' W 003°01'0 0.0
2018-Dec-09 08:59N 53°27' W 003°01'0 0.0
2018-Dec-09 08:29N 53°27' W 003°01'0 0.0
2018-Dec-09 07:59N 53°27' W 003°01'0 0.0
2018-Dec-09 07:28N 53°27' W 003°01'0 0.0
2018-Dec-09 06:58N 53°27' W 003°01'0 0.0
2018-Dec-09 06:28N 53°27' W 003°01'0 0.0
2018-Dec-09 05:58N 53°27' W 003°01'0 0.0
2018-Dec-09 05:30N 53°27' W 003°01'0 0.7
2018-Dec-09 05:00N 53°27' W 003°01'3 6.1
2018-Dec-09 04:31N 53°29' W 003°05'612.8
2018-Dec-09 04:01N 53°31' W 003°15'917.4
2018-Dec-09 03:31N 53°31' W 003°30'917.1
2018-Dec-09 03:00N 53°31' W 003°44'8115.7
2018-Dec-08 21:50N 53°21' W 005°60'515.8
2018-Dec-08 21:30N 53°21' W 006°08'3 5.8
2018-Dec-08 21:00N 53°21' W 006°13'0 0.0
2018-Dec-08 20:28N 53°21' W 006°13'0 0.0
2018-Dec-08 19:55N 53°21' W 006°13'0 0.0
2018-Dec-08 19:10N 53°21' W 006°13'0 0.0
2018-Dec-08 18:58N 53°21' W 006°13'0 0.0
2018-Dec-08 18:25N 53°21' W 006°13'0 0.0
2018-Dec-08 17:39N 53°21' W 006°13'0 0.0
2018-Dec-08 17:30N 53°21' W 006°13'0 0.0
2018-Dec-08 16:54N 53°21' W 006°13'0 0.0
2018-Dec-08 16:09N 53°21' W 006°13'0 0.0
2018-Dec-08 15:59N 53°21' W 006°13'0 0.0
2018-Dec-08 15:29N 53°21' W 006°13'0 0.0
2018-Dec-08 14:38N 53°21' W 006°13'0 0.0
2018-Dec-08 14:29N 53°21' W 006°13'1 1.5
2018-Dec-08 14:00N 53°21' W 006°12'612.7
2018-Dec-08 13:30N 53°21' W 006°01'1119.7
2018-Dec-08 12:56N 53°25' W 005°44'7718.1
2018-Dec-08 08:41N 53°33' W 003°35'316.9
2018-Dec-08 08:30N 53°33' W 003°30'816.8
2018-Dec-08 08:00N 53°32' W 003°16'714.1
2018-Dec-08 07:30N 53°29' W 003°05'3 6.5
2018-Dec-08 07:00N 53°27' W 003°01'0 0.2
2018-Dec-08 06:30N 53°27' W 003°01'0 0.6
2018-Dec-08 06:00N 53°27' W 003°01'0 0.0
2018-Dec-08 05:28N 53°27' W 003°01'0 0.0
2018-Dec-08 05:00N 53°27' W 003°01'0 0.0
2018-Dec-08 04:30N 53°27' W 003°01'0 0.0
2018-Dec-08 04:00N 53°27' W 003°01'0 0.0
2018-Dec-08 03:30N 53°27' W 003°01'0 0.0
2018-Dec-08 02:57N 53°27' W 003°01'0 0.0
2018-Dec-08 02:29N 53°27' W 003°01'0 0.0
2018-Dec-08 01:59N 53°27' W 003°01'0 0.0
2018-Dec-08 01:29N 53°27' W 003°01'0 0.0
2018-Dec-08 00:59N 53°27' W 003°01'0 0.0
2018-Dec-08 00:29N 53°27' W 003°01'0 0.0
2018-Dec-07 23:58N 53°27' W 003°01'0 0.0
2018-Dec-07 23:28N 53°27' W 003°01'0 0.0
2018-Dec-07 22:58N 53°27' W 003°01'0 0.0
2018-Dec-07 22:28N 53°27' W 003°01'0 0.0
2018-Dec-07 22:00N 53°27' W 003°01'0 0.0
2018-Dec-07 21:30N 53°27' W 003°01'0 0.0
2018-Dec-07 21:00N 53°27' W 003°01'0 0.0
2018-Dec-07 20:30N 53°27' W 003°01'0 0.0
2018-Dec-07 20:00N 53°27' W 003°01'0 0.0
2018-Dec-07 19:29N 53°27' W 003°01'0 0.0
2018-Dec-07 18:56N 53°27' W 003°01'0 0.0
2018-Dec-07 18:29N 53°27' W 003°01'0 0.0
2018-Dec-07 17:56N 53°27' W 003°01'0 0.0
2018-Dec-07 17:28N 53°27' W 003°01'0 0.0
2018-Dec-07 16:58N 53°27' W 003°01'0 0.9
2018-Dec-07 16:30N 53°27' W 003°01'0 0.3
2018-Dec-07 16:00N 53°27' W 003°01'612.1
2018-Dec-07 15:31N 53°31' W 003°08'816.2
2018-Dec-07 15:01N 53°31' W 003°21'917.8
2018-Dec-07 14:31N 53°31' W 003°36'1018.2
2018-Dec-07 13:59N 53°32' W 003°53'7719.2
2018-Dec-07 10:00N 53°21' W 005°60'713.9
2018-Dec-07 09:31N 53°21' W 006°11'1 1.7
2018-Dec-07 08:47N 53°21' W 006°13'0 0.0
2018-Dec-07 08:29N 53°21' W 006°13'0 0.0
2018-Dec-07 07:59N 53°21' W 006°13'0 0.0
2018-Dec-07 07:20N 53°21' W 006°13'0 0.0
2018-Dec-07 06:40N 53°21' W 006°13'0 0.0
2018-Dec-07 06:28N 53°21' W 006°13'0 0.0
2018-Dec-07 05:55N 53°21' W 006°13'0 0.0
2018-Dec-07 05:22N 53°21' W 006°13'1 1.5
2018-Dec-07 05:01N 53°21' W 006°12'611.3
2018-Dec-07 04:30N 53°21' W 006°03'917.8
2018-Dec-07 04:00N 53°24' W 005°49'8419.0
2018-Dec-06 23:35N 53°34' W 003°29'119.4
2018-Dec-06 23:30N 53°33' W 003°26'918.7
2018-Dec-06 23:00N 53°32' W 003°11'815.1
2018-Dec-06 22:30N 53°27' W 003°01'0 0.7
2018-Dec-06 22:00N 53°27' W 003°01'0 0.7
2018-Dec-06 21:29N 53°27' W 003°01'0 0.0
2018-Dec-06 20:59N 53°27' W 003°01'0 0.0
2018-Dec-06 20:29N 53°27' W 003°01'0 0.0
2018-Dec-06 19:58N 53°27' W 003°01'0 0.0
2018-Dec-06 19:28N 53°27' W 003°01'0 0.0
2018-Dec-06 18:58N 53°27' W 003°01'0 0.0
2018-Dec-06 18:28N 53°27' W 003°01'0 0.0
2018-Dec-06 17:58N 53°27' W 003°01'0 0.0
2018-Dec-06 17:30N 53°27' W 003°01'0 0.3
2018-Dec-06 17:01N 53°27' W 003°01'0 0.7
2018-Dec-06 16:30N 53°27' W 003°01'2 3.1
2018-Dec-06 16:00N 53°28' W 003°03'713.1
2018-Dec-06 15:30N 53°31' W 003°12'917.9
2018-Dec-06 15:00N 53°31' W 003°28'1019.4
2018-Dec-06 14:30N 53°31' W 003°44'1019.1
2018-Dec-06 13:59N 53°33' W 004°00'7218.2
2018-Dec-06 10:01N 53°21' W 005°60'018.6
2018-Dec-06 10:00N 53°21' W 006°00'713.6
2018-Dec-06 09:30N 53°21' W 006°11'1 2.0
2018-Dec-06 09:00N 53°21' W 006°13'0 0.0
2018-Dec-06 08:21N 53°21' W 006°13'0 0.0
2018-Dec-06 07:39N 53°21' W 006°13'0 0.0
2018-Dec-06 07:30N 53°21' W 006°13'0 0.0
2018-Dec-06 06:57N 53°21' W 006°13'0 0.0
2018-Dec-06 06:14N 53°21' W 006°13'0 0.0
2018-Dec-06 05:59N 53°21' W 006°13'0 0.0
2018-Dec-06 05:29N 53°21' W 006°13'0 0.6
2018-Dec-06 05:01N 53°21' W 006°13'5 9.6
2018-Dec-06 04:30N 53°20' W 006°05'917.9
2018-Dec-06 04:00N 53°23' W 005°51'3917.8
2018-Dec-06 01:51N 53°32' W 004°48'3218.7
2018-Dec-06 00:10N 53°34' W 003°55'1417.1
2018-Dec-05 23:22N 53°33' W 003°32'616.6
2018-Dec-05 23:00N 53°33' W 003°22'917.4
2018-Dec-05 22:30N 53°31' W 003°07'611.6
2018-Dec-05 22:00N 53°27' W 003°01'0 0.9
2018-Dec-05 21:30N 53°27' W 003°01'0 0.0
2018-Dec-05 21:00N 53°27' W 003°01'0 0.0
2018-Dec-05 20:30N 53°27' W 003°01'0 0.0
2018-Dec-05 20:00N 53°27' W 003°01'0 0.0
2018-Dec-05 19:30N 53°27' W 003°01'0 0.0
2018-Dec-05 18:59N 53°27' W 003°01'0 0.0
2018-Dec-05 18:29N 53°27' W 003°01'0 0.0
2018-Dec-05 17:59N 53°27' W 003°01'0 0.0
2018-Dec-05 17:29N 53°27' W 003°01'0 0.0
2018-Dec-05 16:59N 53°27' W 003°01'0 0.8
2018-Dec-05 16:28N 53°27' W 003°01'2 4.6
2018-Dec-05 16:00N 53°28' W 003°04'613.0
2018-Dec-05 15:30N 53°31' W 003°14'918.7
2018-Dec-05 15:00N 53°31' W 003°29'1019.5
2018-Dec-05 14:30N 53°32' W 003°46'7818.2
2018-Dec-05 10:14N 53°22' W 005°55'418.1
2018-Dec-05 10:00N 53°21' W 006°02'611.9
2018-Dec-05 09:30N 53°21' W 006°12'1 1.5
2018-Dec-05 09:00N 53°21' W 006°13'0 0.0
2018-Dec-05 08:18N 53°21' W 006°13'0 0.0
2018-Dec-05 08:00N 53°21' W 006°13'0 0.0
2018-Dec-05 07:29N 53°21' W 006°13'0 0.0
2018-Dec-05 06:50N 53°21' W 006°13'0 0.0
2018-Dec-05 06:05N 53°21' W 006°13'0 0.0
2018-Dec-05 05:59N 53°21' W 006°13'0 0.0
2018-Dec-05 05:22N 53°21' W 006°13'0 0.2
2018-Dec-05 05:00N 53°21' W 006°13'4 8.9
2018-Dec-05 04:30N 53°20' W 006°05'815.0
2018-Dec-05 04:00N 53°23' W 005°54'815.6
2018-Dec-05 03:30N 53°25' W 005°41'7816.4
2018-Dec-04 22:47N 53°34' W 003°32'517.0
2018-Dec-04 22:30N 53°33' W 003°24'917.4
2018-Dec-04 22:00N 53°32' W 003°09'713.7
2018-Dec-04 21:30N 53°27' W 003°01'0 0.9
2018-Dec-04 21:00N 53°27' W 003°01'0 0.0
2018-Dec-04 20:30N 53°27' W 003°01'0 0.0
2018-Dec-04 20:00N 53°27' W 003°01'0 0.0
2018-Dec-04 19:29N 53°27' W 003°01'0 0.0
2018-Dec-04 18:59N 53°27' W 003°01'0 0.0
2018-Dec-04 18:29N 53°27' W 003°01'0 0.0
2018-Dec-04 17:59N 53°27' W 003°01'0 0.0
2018-Dec-04 17:29N 53°27' W 003°01'0 0.0
2018-Dec-04 16:58N 53°27' W 003°01'0 0.9
2018-Dec-04 16:27N 53°27' W 003°01'0 0.3
2018-Dec-04 16:00N 53°27' W 003°01'612.2
2018-Dec-04 15:30N 53°32' W 003°08'816.7
2018-Dec-04 15:00N 53°32' W 003°22'1020.1
2018-Dec-04 14:30N 53°31' W 003°39'1019.9
2018-Dec-04 13:59N 53°33' W 003°56'7418.5
2018-Dec-04 09:57N 53°21' W 005°59'612.5
2018-Dec-04 09:30N 53°21' W 006°09'2 4.2
2018-Dec-04 08:55N 53°21' W 006°13'0 0.0
2018-Dec-04 08:13N 53°21' W 006°13'0 0.0
2018-Dec-04 07:58N 53°21' W 006°13'0 0.0
2018-Dec-04 07:30N 53°21' W 006°13'0 0.0
2018-Dec-04 06:45N 53°21' W 006°13'0 0.0
2018-Dec-04 06:27N 53°21' W 006°13'0 0.0
2018-Dec-04 06:00N 53°21' W 006°13'0 0.0
2018-Dec-04 05:18N 53°21' W 006°13'0 1.0
2018-Dec-04 05:00N 53°21' W 006°13'5 9.8
2018-Dec-04 04:30N 53°20' W 006°04'816.9
2018-Dec-04 04:00N 53°24' W 005°51'8116.3
2018-Dec-03 23:03N 53°33' W 003°37'116.5
2018-Dec-03 23:00N 53°33' W 003°35'816.3
2018-Dec-03 22:30N 53°32' W 003°22'917.3
2018-Dec-03 22:00N 53°31' W 003°07'611.5
2018-Dec-03 21:30N 53°27' W 003°01'0 0.9
2018-Dec-03 20:59N 53°27' W 003°01'0 0.0
2018-Dec-03 20:29N 53°27' W 003°01'0 0.0
2018-Dec-03 19:59N 53°27' W 003°01'0 0.0
2018-Dec-03 19:29N 53°27' W 003°01'0 0.0
2018-Dec-03 18:59N 53°27' W 003°01'0 0.0
2018-Dec-03 18:28N 53°27' W 003°01'0 0.0
2018-Dec-03 17:55N 53°27' W 003°01'0 0.0
2018-Dec-03 17:28N 53°27' W 003°01'0 0.0
2018-Dec-03 16:58N 53°27' W 003°01'0 0.9
2018-Dec-03 16:27N 53°27' W 003°01'0 0.4
2018-Dec-03 16:00N 53°27' W 003°01'714.4
2018-Dec-03 15:30N 53°32' W 003°10'918.4
2018-Dec-03 15:00N 53°31' W 003°25'1020.7
2018-Dec-03 14:30N 53°31' W 003°43'8118.9
2018-Dec-03 10:12N 53°21' W 005°58'  

Dump ship's entire track history